Time;durP1;ratioP1;P1;durP2;ratioP2;P2;SDS_P1;SDS_P2;PMS_P1;PMS_P2;Temp;Humidity;BMP_temperature;BMP_pressure;BME280_temperature;BME280_humidity;BME280_pressure;Samples;Min_cycle;Max_cycle;Signal;HPM_P1;HPM_P2
2023/06/25 00:00:47;;;;;;;11.70;8.90;;;;;;;25.07;63.89;99861.61;105858;1253;61355;-77
2023/06/25 00:03:14;;;;;;;11.40;8.80;;;;;;;25.12;63.85;99861.70;105913;1256;61231;-77
2023/06/25 00:05:42;;;;;;;11.00;9.20;;;;;;;25.16;63.75;99858.17;105945;1254;61231;-76
2023/06/25 00:08:08;;;;;;;13.20;9.10;;;;;;;25.18;63.77;99862.02;105961;1258;65738;-76
2023/06/25 00:10:35;;;;;;;10.80;9.10;;;;;;;25.19;63.70;99860.05;105843;1255;61259;-76
2023/06/25 00:13:04;;;;;;;10.60;8.90;;;;;;;25.19;63.76;99862.38;105706;1253;64146;-75
2023/06/25 00:15:31;;;;;;;10.10;9.00;;;;;;;25.22;63.71;99860.77;105903;1256;61189;-75
2023/06/25 00:17:57;;;;;;;11.80;9.00;;;;;;;25.25;63.71;99863.33;105960;1252;61272;-76
2023/06/25 00:20:24;;;;;;;11.00;9.00;;;;;;;25.26;63.69;99862.10;105930;1256;66166;-76
2023/06/25 00:22:52;;;;;;;9.60;8.60;;;;;;;25.26;63.73;99859.02;105934;1259;61253;-75
2023/06/25 00:25:35;;;;;;;11.20;8.90;;;;;;;25.25;63.85;99855.66;105692;1257;64187;-76
2023/06/25 00:28:01;;;;;;;10.80;8.90;;;;;;;25.26;63.89;99851.29;105629;1256;61231;-75
2023/06/25 00:30:30;;;;;;;11.50;9.30;;;;;;;25.25;63.94;99847.39;105700;1253;61272;-76
2023/06/25 00:32:56;;;;;;;9.80;8.90;;;;;;;25.25;63.91;99847.44;105802;1256;65906;-76
2023/06/25 00:35:28;;;;;;;10.70;9.30;;;;;;;25.26;63.93;99847.05;105710;1253;61702;-76
2023/06/25 00:38:00;;;;;;;11.20;9.80;;;;;;;25.28;63.90;99842.11;105756;1254;64054;-76
2023/06/25 00:40:27;;;;;;;11.70;9.20;;;;;;;25.28;63.93;99843.31;105806;1254;61311;-76
2023/06/25 00:42:58;;;;;;;10.30;9.10;;;;;;;25.29;63.97;99840.23;105999;1253;61243;-76
2023/06/25 00:45:25;;;;;;;11.80;8.80;;;;;;;25.28;63.85;99835.08;105927;1256;66096;-76
2023/06/25 00:47:51;;;;;;;12.20;9.20;;;;;;;25.26;63.83;99830.27;105834;1254;61349;-76
2023/06/25 00:50:21;;;;;;;10.70;9.60;;;;;;;25.25;63.82;99826.52;105861;1258;63824;-75
2023/06/25 00:52:48;;;;;;;13.90;10.10;;;;;;;25.24;63.87;99825.46;105700;1255;61285;-77
2023/06/25 00:55:15;;;;;;;12.40;10.30;;;;;;;25.23;64.05;99821.33;105883;1254;61234;-76
2023/06/25 00:57:42;;;;;;;10.70;9.60;;;;;;;25.23;64.16;99819.33;105652;1259;65696;-77
2023/06/25 01:00:14;;;;;;;11.40;9.80;;;;;;;25.24;64.37;99808.27;105946;1253;61346;-77
2023/06/25 01:02:52;;;;;;;10.20;9.10;;;;;;;25.27;64.39;99802.28;105998;1253;63790;-75
2023/06/25 01:05:20;;;;;;;10.10;8.80;;;;;;;25.28;64.49;99792.86;106003;1254;61221;-76
2023/06/25 01:07:47;;;;;;;10.40;9.20;;;;;;;25.29;64.47;99788.59;105894;1253;61218;-76
2023/06/25 01:10:13;;;;;;;12.30;9.10;;;;;;;25.30;64.49;99789.32;105770;1259;64804;-75
2023/06/25 01:12:42;;;;;;;9.70;8.80;;;;;;;25.31;64.47;99786.35;105663;1257;61308;-76
2023/06/25 01:15:09;;;;;;;10.80;9.60;;;;;;;25.31;64.39;99790.14;105883;1257;62668;-76
2023/06/25 01:17:37;;;;;;;10.40;9.20;;;;;;;25.30;64.51;99791.09;105822;1253;61319;-76
2023/06/25 01:20:08;;;;;;;10.50;9.30;;;;;;;25.30;64.49;99795.52;105744;1258;61330;-76
2023/06/25 01:22:36;;;;;;;10.30;9.10;;;;;;;25.28;64.47;99799.98;106021;1255;66024;-76
2023/06/25 01:25:04;;;;;;;14.30;9.80;;;;;;;25.26;64.71;99797.73;105905;1251;61326;-75
2023/06/25 01:27:34;;;;;;;12.70;10.20;;;;;;;25.26;64.86;99798.77;105915;1256;63723;-76
2023/06/25 01:30:01;;;;;;;11.90;10.60;;;;;;;25.27;64.90;99804.08;105822;1257;61394;-76
2023/06/25 01:32:30;;;;;;;13.10;10.20;;;;;;;25.26;64.88;99803.13;105543;1255;61350;-77
2023/06/25 01:34:57;;;;;;;13.90;11.10;;;;;;;25.20;64.83;99810.02;105986;1256;65890;-76
2023/06/25 01:37:24;;;;;;;13.90;10.40;;;;;;;25.14;64.95;99808.81;105966;1255;61240;-75
2023/06/25 01:39:53;;;;;;;17.10;10.40;;;;;;;25.11;64.94;99804.55;105676;1256;61357;-75
2023/06/25 01:42:20;;;;;;;14.30;10.20;;;;;;;25.07;65.04;99798.44;105766;1253;61324;-75
2023/06/25 01:44:47;;;;;;;13.30;10.60;;;;;;;25.02;65.17;99795.92;105545;1258;61302;-75
2023/06/25 01:47:13;;;;;;;12.20;10.00;;;;;;;24.97;65.23;99800.04;105924;1255;64728;-75
2023/06/25 01:49:41;;;;;;;12.10;10.10;;;;;;;24.93;65.41;99803.98;105971;1256;61292;-75
2023/06/25 01:52:08;;;;;;;16.80;9.80;;;;;;;24.90;65.47;99804.88;105599;1257;61295;-75
2023/06/25 01:54:35;;;;;;;18.20;10.10;;;;;;;24.87;65.62;99812.89;105793;1256;61180;-74
2023/06/25 01:57:01;;;;;;;11.20;9.30;;;;;;;24.86;65.80;99814.58;105639;1258;61314;-74
2023/06/25 01:59:28;;;;;;;12.60;9.00;;;;;;;24.85;66.01;99823.69;105681;1259;65979;-74
2023/06/25 02:01:55;;;;;;;10.80;8.40;;;;;;;24.83;66.14;99820.95;105530;1257;61256;-75
2023/06/25 02:04:24;;;;;;;11.70;8.70;;;;;;;24.83;66.36;99819.77;105717;1256;64018;-74
2023/06/25 02:06:50;;;;;;;10.10;8.10;;;;;;;24.83;66.29;99819.98;105688;1257;61169;-75
2023/06/25 02:09:17;;;;;;;9.40;8.10;;;;;;;24.84;66.34;99816.11;105806;1254;61270;-74
2023/06/25 02:11:46;;;;;;;15.90;8.60;;;;;;;24.84;66.40;99817.89;105616;1255;66119;-74
2023/06/25 02:14:12;;;;;;;15.20;8.20;;;;;;;24.82;66.44;99825.48;105782;1259;61403;-74
2023/06/25 02:16:39;;;;;;;9.20;7.50;;;;;;;24.81;66.47;99832.48;105617;1257;64043;-74
2023/06/25 02:19:07;;;;;;;9.10;7.60;;;;;;;24.78;66.29;99835.13;105680;1254;61245;-75
2023/06/25 02:21:33;;;;;;;11.00;7.40;;;;;;;24.77;66.32;99840.58;105852;1256;61266;-74
2023/06/25 02:24:00;;;;;;;10.70;8.40;;;;;;;24.75;66.36;99845.52;105991;1257;61253;-73
2023/06/25 02:26:26;;;;;;;12.80;10.30;;;;;;;24.73;66.46;99847.16;105824;1256;61298;-75
2023/06/25 02:28:53;;;;;;;11.40;10.10;;;;;;;24.70;66.39;99849.10;105943;1257;61346;-74
2023/06/25 02:31:19;;;;;;;14.60;11.40;;;;;;;24.67;66.31;99853.66;105880;1257;61345;-75
2023/06/25 02:33:46;;;;;;;12.10;10.70;;;;;;;24.64;66.35;99855.95;106025;1251;61327;-75
2023/06/25 02:36:13;;;;;;;13.60;12.20;;;;;;;24.61;66.32;99852.55;106004;1254;64780;-74
2023/06/25 02:38:39;;;;;;;14.80;10.40;;;;;;;24.59;66.44;99853.80;105821;1257;61325;-75
2023/06/25 02:41:06;;;;;;;14.50;10.90;;;;;;;24.61;66.71;99849.31;105756;1256;64020;-75
2023/06/25 02:43:34;;;;;;;13.10;10.50;;;;;;;24.64;66.67;99846.61;105885;1254;61247;-74
2023/06/25 02:46:00;;;;;;;10.10;7.40;;;;;;;24.66;66.84;99846.13;105750;1257;61255;-73
2023/06/25 02:48:27;;;;;;;9.60;8.70;;;;;;;24.65;66.76;99844.77;105701;1258;66016;-73
2023/06/25 02:50:54;;;;;;;10.10;9.10;;;;;;;24.58;66.59;99846.42;105882;1257;61291;-74
2023/06/25 02:53:21;;;;;;;11.40;10.10;;;;;;;24.52;66.40;99851.11;105710;1257;63900;-74
2023/06/25 02:55:48;;;;;;;10.30;9.40;;;;;;;24.48;66.33;99854.34;105738;1254;61226;-74
2023/06/25 02:58:15;;;;;;;12.40;10.00;;;;;;;24.43;66.32;99852.59;105872;1253;61226;-74
2023/06/25 03:00:42;;;;;;;11.30;10.20;;;;;;;24.36;66.38;99851.50;105685;1256;65846;-74
2023/06/25 03:03:08;;;;;;;11.30;9.60;;;;;;;24.30;66.45;99849.66;105503;1258;61317;-74
2023/06/25 03:05:36;;;;;;;10.80;9.70;;;;;;;24.28;66.41;99851.17;105698;1257;64101;-74
2023/06/25 03:08:04;;;;;;;14.60;9.50;;;;;;;24.25;66.41;99853.20;105912;1257;61280;-74
2023/06/25 03:10:33;;;;;;;12.30;9.90;;;;;;;24.23;66.45;99853.69;105811;1254;61266;-74
2023/06/25 03:13:00;;;;;;;20.10;11.00;;;;;;;24.23;66.34;99849.25;105928;1257;66017;-74
2023/06/25 03:15:27;;;;;;;16.90;10.70;;;;;;;24.22;66.50;99843.02;105734;1257;61320;-74
2023/06/25 03:17:53;;;;;;;9.90;8.90;;;;;;;24.21;66.63;99838.86;105702;1254;63843;-74
2023/06/25 03:20:20;;;;;;;10.60;9.20;;;;;;;24.19;66.76;99846.20;105656;1257;61264;-74
2023/06/25 03:22:47;;;;;;;12.50;9.40;;;;;;;24.18;66.93;99845.84;105778;1253;61324;-74
2023/06/25 03:25:14;;;;;;;12.70;10.40;;;;;;;24.16;66.92;99848.06;105995;1257;65929;-73
2023/06/25 03:27:43;;;;;;;12.60;11.30;;;;;;;24.15;67.01;99846.36;105893;1251;61233;-74
2023/06/25 03:30:10;;;;;;;20.60;12.50;;;;;;;24.16;67.12;99847.20;105734;1260;62607;-74
2023/06/25 03:32:37;;;;;;;13.40;12.00;;;;;;;24.16;67.26;99850.11;105599;1257;61280;-74
2023/06/25 03:35:04;;;;;;;14.10;12.60;;;;;;;24.15;67.43;99849.29;105859;1259;61360;-75
2023/06/25 03:37:31;;;;;;;15.10;12.70;;;;;;;24.15;67.43;99848.58;105838;1256;65923;-74
2023/06/25 03:39:58;;;;;;;14.00;12.60;;;;;;;24.15;67.46;99851.81;105798;1257;61320;-74
2023/06/25 03:42:24;;;;;;;15.20;12.30;;;;;;;24.14;67.51;99852.75;105826;1257;64608;-74
2023/06/25 03:44:53;;;;;;;13.60;12.30;;;;;;;24.13;67.56;99852.63;105811;1257;61208;-73
2023/06/25 03:47:21;;;;;;;14.20;12.80;;;;;;;24.13;67.38;99855.03;105871;1252;61330;-74
2023/06/25 03:49:48;;;;;;;13.70;12.40;;;;;;;24.10;67.48;99857.63;105799;1259;65872;-73
2023/06/25 03:52:15;;;;;;;13.60;12.10;;;;;;;24.05;67.53;99857.80;105854;1253;61219;-74
2023/06/25 03:54:42;;;;;;;12.90;11.60;;;;;;;24.01;67.48;99860.98;106041;1254;64018;-74
2023/06/25 03:57:09;;;;;;;13.80;11.80;;;;;;;23.98;67.53;99862.84;105775;1257;61401;-74
2023/06/25 03:59:36;;;;;;;13.40;11.80;;;;;;;23.97;67.46;99866.38;105971;1254;61343;-75
2023/06/25 04:02:05;;;;;;;12.50;11.20;;;;;;;23.94;67.54;99866.91;105868;1254;65965;-74
2023/06/25 04:04:31;;;;;;;14.00;11.70;;;;;;;23.90;67.33;99864.40;105968;1260;61279;-74
2023/06/25 04:06:58;;;;;;;12.70;11.60;;;;;;;23.87;67.31;99865.27;105798;1259;64080;-74
2023/06/25 04:09:25;;;;;;;17.30;11.80;;;;;;;23.85;67.24;99860.69;105777;1254;61253;-74
2023/06/25 04:11:52;;;;;;;13.60;11.20;;;;;;;23.82;67.00;99859.55;105853;1258;61241;-74
2023/06/25 04:14:19;;;;;;;13.80;10.50;;;;;;;23.78;66.87;99863.15;105791;1256;65883;-74
2023/06/25 04:16:46;;;;;;;13.70;10.40;;;;;;;23.75;66.83;99864.80;105745;1258;61359;-75
2023/06/25 04:19:13;;;;;;;12.70;10.70;;;;;;;23.72;66.75;99865.64;105680;1254;63962;-74
2023/06/25 04:21:40;;;;;;;11.10;10.00;;;;;;;23.66;66.78;99860.84;105766;1259;61410;-74
2023/06/25 04:24:07;;;;;;;12.80;10.20;;;;;;;23.63;66.74;99860.06;106130;1251;61327;-74
2023/06/25 04:26:33;;;;;;;11.50;10.10;;;;;;;23.59;66.61;99856.23;106053;1251;65837;-75
2023/06/25 04:29:00;;;;;;;11.10;9.80;;;;;;;23.56;66.57;99850.73;105899;1257;61327;-75
2023/06/25 04:31:27;;;;;;;11.10;9.80;;;;;;;23.51;66.56;99846.11;105904;1257;62875;-75
2023/06/25 04:33:55;;;;;;;10.40;9.40;;;;;;;23.45;66.65;99845.54;106008;1256;61213;-75
2023/06/25 04:36:23;;;;;;;12.20;9.50;;;;;;;23.40;66.53;99844.90;106038;1252;61221;-73
2023/06/25 04:38:55;;;;;;;11.10;9.70;;;;;;;23.39;66.52;99840.39;105781;1257;65775;-74
2023/06/25 04:41:25;;;;;;;11.20;10.00;;;;;;;23.36;66.58;99835.14;105786;1257;61330;-74
2023/06/25 04:43:52;;;;;;;10.60;9.50;;;;;;;23.34;66.72;99834.32;105845;1254;63978;-74
2023/06/25 04:46:19;;;;;;;12.60;10.30;;;;;;;23.35;66.80;99832.38;105848;1256;61257;-74
2023/06/25 04:48:46;;;;;;;11.40;10.10;;;;;;;23.39;66.97;99829.00;105812;1253;61203;-74
2023/06/25 04:51:13;;;;;;;14.10;10.10;;;;;;;23.41;67.14;99826.44;105865;1253;64836;-74
2023/06/25 04:53:40;;;;;;;11.60;10.40;;;;;;;23.47;67.41;99829.85;105689;1257;61253;-74
2023/06/25 04:56:07;;;;;;;11.90;10.70;;;;;;;23.51;67.53;99833.67;105946;1257;64195;-75
2023/06/25 04:58:35;;;;;;;11.10;10.00;;;;;;;23.58;67.64;99831.27;105772;1253;61299;-75
2023/06/25 05:01:02;;;;;;;12.70;10.20;;;;;;;23.66;67.73;99828.27;105681;1257;61336;-75
2023/06/25 05:03:30;;;;;;;11.40;10.30;;;;;;;23.77;67.80;99823.36;105689;1257;65819;-75
2023/06/25 05:05:57;;;;;;;11.50;10.10;;;;;;;23.84;67.64;99820.85;105630;1253;61334;-74
2023/06/25 05:08:24;;;;;;;11.70;10.50;;;;;;;23.90;67.57;99816.23;105711;1253;63995;-74
2023/06/25 05:10:50;;;;;;;10.70;9.70;;;;;;;23.95;67.61;99813.04;105642;1254;61298;-75
2023/06/25 05:13:18;;;;;;;11.30;10.20;;;;;;;23.98;67.71;99816.52;105741;1254;61333;-74
2023/06/25 05:15:45;;;;;;;11.90;10.60;;;;;;;24.03;67.54;99818.64;105705;1257;66141;-74
2023/06/25 05:18:12;;;;;;;12.20;11.00;;;;;;;24.06;67.27;99821.64;105695;1254;61308;-74
2023/06/25 05:20:39;;;;;;;13.90;10.70;;;;;;;24.10;67.24;99821.30;105665;1256;63832;-74
2023/06/25 05:23:08;;;;;;;12.30;11.00;;;;;;;24.14;67.15;99824.17;105824;1254;61362;-73
2023/06/25 05:25:35;;;;;;;11.80;10.70;;;;;;;24.17;67.02;99826.67;105937;1254;61161;-74
2023/06/25 05:28:02;;;;;;;11.60;10.40;;;;;;;24.21;67.06;99826.21;105905;1256;66235;-74
2023/06/25 05:30:30;;;;;;;11.60;10.00;;;;;;;24.25;66.98;99825.52;105861;1257;61228;-74
2023/06/25 05:33:00;;;;;;;11.40;10.20;;;;;;;24.28;66.77;99831.37;105670;1254;64020;-75
2023/06/25 05:35:28;;;;;;;13.40;10.50;;;;;;;24.28;66.45;99833.90;105837;1255;61251;-75
2023/06/25 05:37:56;;;;;;;11.50;10.30;;;;;;;24.27;66.27;99834.20;105757;1254;61250;-74
2023/06/25 05:40:23;;;;;;;14.40;10.20;;;;;;;24.26;66.30;99832.35;105700;1259;65783;-74
2023/06/25 05:42:51;;;;;;;11.10;10.00;;;;;;;24.26;66.28;99831.05;105758;1257;61308;-74
2023/06/25 05:45:17;;;;;;;10.50;9.30;;;;;;;24.26;66.07;99833.01;105821;1254;64000;-74
2023/06/25 05:47:45;;;;;;;10.70;9.70;;;;;;;24.27;66.04;99838.64;105924;1254;61313;-74
2023/06/25 05:50:12;;;;;;;11.30;10.10;;;;;;;24.31;66.01;99838.55;105678;1254;61313;-75
2023/06/25 05:52:41;;;;;;;11.70;9.90;;;;;;;24.35;66.07;99841.80;105740;1256;65922;-74
2023/06/25 05:55:08;;;;;;;11.90;10.00;;;;;;;24.39;66.25;99845.64;105733;1254;61291;-74
2023/06/25 05:57:35;;;;;;;11.00;10.00;;;;;;;24.40;66.22;99851.94;105877;1253;64014;-74
2023/06/25 06:00:03;;;;;;;11.00;9.90;;;;;;;24.39;66.21;99854.19;105801;1253;61336;-73
2023/06/25 06:02:40;;;;;;;11.20;9.40;;;;;;;24.41;65.97;99856.34;105807;1256;61241;-74
2023/06/25 06:05:06;;;;;;;10.70;9.40;;;;;;;24.40;65.68;99851.45;105879;1256;66072;-74
2023/06/25 06:07:34;;;;;;;11.40;9.30;;;;;;;24.39;65.51;99849.05;105874;1257;61321;-74
2023/06/25 06:10:01;;;;;;;10.20;9.00;;;;;;;24.41;65.43;99854.22;105867;1254;64004;-73
2023/06/25 06:12:27;;;;;;;10.90;9.20;;;;;;;24.45;65.39;99853.14;105789;1254;61139;-74
2023/06/25 06:14:55;;;;;;;10.40;8.90;;;;;;;24.50;65.25;99853.38;105621;1254;61228;-74
2023/06/25 06:17:21;;;;;;;10.10;9.10;;;;;;;24.53;64.99;99853.22;105763;1253;65998;-74
2023/06/25 06:19:48;;;;;;;10.80;9.00;;;;;;;24.59;64.83;99857.84;105697;1254;61350;-74
2023/06/25 06:22:18;;;;;;;10.90;9.00;;;;;;;24.65;64.87;99860.52;105756;1254;63975;-74
2023/06/25 06:24:44;;;;;;;10.30;8.80;;;;;;;24.71;64.36;99868.63;105778;1255;61348;-74
2023/06/25 06:27:11;;;;;;;10.00;9.00;;;;;;;24.74;64.33;99875.74;105930;1251;61423;-75
2023/06/25 06:29:37;;;;;;;10.40;9.20;;;;;;;24.78;64.05;99878.71;106012;1251;61330;-74
2023/06/25 06:32:05;;;;;;;10.60;9.50;;;;;;;24.82;63.72;99875.11;105837;1251;61428;-74
2023/06/25 06:34:34;;;;;;;10.50;9.40;;;;;;;24.88;63.62;99875.65;105961;1256;64139;-74
2023/06/25 06:37:01;;;;;;;11.40;8.80;;;;;;;24.95;63.68;99873.80;105704;1254;61217;-75
2023/06/25 06:39:28;;;;;;;9.60;8.60;;;;;;;25.03;63.57;99872.80;105752;1255;61249;-75
2023/06/25 06:41:54;;;;;;;10.90;9.40;;;;;;;25.13;63.31;99870.95;105839;1252;65688;-75
2023/06/25 06:44:25;;;;;;;10.00;9.00;;;;;;;25.21;62.80;99872.79;105833;1254;61359;-75
2023/06/25 06:46:52;;;;;;;10.00;8.70;;;;;;;25.26;62.28;99873.59;105716;1254;62617;-75
2023/06/25 06:49:19;;;;;;;10.60;8.40;;;;;;;25.32;62.25;99873.20;105888;1253;61231;-75
2023/06/25 06:51:46;;;;;;;10.40;8.40;;;;;;;25.39;61.93;99874.31;105714;1254;61236;-75
2023/06/25 06:54:13;;;;;;;10.00;8.90;;;;;;;25.48;61.71;99873.30;105811;1256;65727;-74
2023/06/25 06:56:42;;;;;;;10.00;8.90;;;;;;;25.60;61.67;99870.79;105803;1252;61296;-74
2023/06/25 06:59:09;;;;;;;10.40;8.90;;;;;;;25.74;61.52;99874.17;105809;1254;63698;-74
2023/06/25 07:01:37;;;;;;;11.00;8.60;;;;;;;25.88;61.25;99873.07;105824;1253;61320;-74
2023/06/25 07:04:04;;;;;;;9.90;8.70;;;;;;;26.03;60.84;99875.81;105820;1254;61080;-74
2023/06/25 07:06:30;;;;;;;9.40;8.50;;;;;;;26.17;60.40;99875.17;105917;1254;64678;-74
2023/06/25 07:08:57;;;;;;;12.90;8.90;;;;;;;26.30;59.96;99871.61;105738;1254;61303;-71
2023/06/25 07:11:30;;;;;;;10.00;9.00;;;;;;;26.41;59.57;99868.30;105629;1254;64026;-73
2023/06/25 07:13:56;;;;;;;11.40;9.20;;;;;;;26.49;59.15;99865.73;105648;1254;61333;-73
2023/06/25 07:16:24;;;;;;;9.10;8.20;;;;;;;26.54;58.83;99863.98;105860;1256;61311;-73
2023/06/25 07:18:51;;;;;;;10.60;9.30;;;;;;;26.57;58.84;99860.05;105806;1253;61241;-73
2023/06/25 07:21:17;;;;;;;9.80;8.80;;;;;;;26.60;58.65;99858.05;105820;1253;61252;-73
2023/06/25 07:23:44;;;;;;;10.20;9.20;;;;;;;26.63;58.45;99855.95;105800;1253;63978;-74
2023/06/25 07:26:12;;;;;;;12.10;9.60;;;;;;;26.68;58.11;99857.78;105866;1251;61156;-74
2023/06/25 07:28:38;;;;;;;12.60;9.10;;;;;;;26.71;58.06;99855.94;105779;1253;61275;-73
2023/06/25 07:31:05;;;;;;;9.90;9.00;;;;;;;26.74;57.83;99854.11;105707;1256;65834;-74
2023/06/25 07:33:34;;;;;;;11.00;9.90;;;;;;;26.78;57.82;99849.52;105679;1253;61260;-75
2023/06/25 07:36:01;;;;;;;10.70;9.10;;;;;;;26.79;57.62;99847.91;105790;1255;64085;-74
2023/06/25 07:38:28;;;;;;;12.90;9.60;;;;;;;26.81;57.47;99847.73;105710;1254;61232;-74
2023/06/25 07:40:54;;;;;;;10.20;9.10;;;;;;;26.84;57.17;99846.49;105690;1257;61335;-75
2023/06/25 07:43:21;;;;;;;11.30;9.20;;;;;;;26.84;57.04;99850.67;105922;1257;65987;-74
2023/06/25 07:45:53;;;;;;;11.00;9.20;;;;;;;26.84;57.06;99853.55;106016;1254;61927;-75
2023/06/25 07:48:20;;;;;;;9.80;8.50;;;;;;;26.85;56.96;99854.81;105887;1253;64071;-74
2023/06/25 07:50:46;;;;;;;10.90;9.10;;;;;;;26.87;57.11;99860.98;105666;1254;61190;-74
2023/06/25 07:53:13;;;;;;;10.50;9.40;;;;;;;26.89;57.27;99864.71;105711;1253;61350;-74
2023/06/25 07:55:41;;;;;;;10.40;9.40;;;;;;;26.93;57.19;99863.94;105861;1256;65975;-74
2023/06/25 07:58:28;;;;;;;13.50;9.60;;;;;;;26.96;56.85;99866.80;105803;1253;61330;-74
2023/06/25 08:00:55;;;;;;;10.90;9.50;;;;;;;26.97;57.21;99867.40;105875;1257;64089;-74
2023/06/25 08:03:22;;;;;;;12.00;10.10;;;;;;;26.97;57.46;99866.33;105820;1254;61310;-74
2023/06/25 08:05:49;;;;;;;13.20;9.20;;;;;;;26.99;57.47;99861.91;105817;1253;61238;-75
2023/06/25 08:08:16;;;;;;;10.50;9.40;;;;;;;27.04;57.55;99859.71;105867;1254;66025;-74
2023/06/25 08:10:43;;;;;;;10.50;9.50;;;;;;;27.11;57.55;99854.52;105663;1254;61404;-74
2023/06/25 08:13:09;;;;;;;10.50;9.40;;;;;;;27.13;56.92;99852.86;105704;1254;63900;-74
2023/06/25 08:15:36;;;;;;;10.70;9.60;;;;;;;27.15;56.98;99852.27;105795;1254;183817;-74
2023/06/25 08:18:03;;;;;;;11.00;9.40;;;;;;;27.22;57.16;99847.64;105892;1258;61136;-72
2023/06/25 08:20:30;;;;;;;9.60;8.60;;;;;;;27.34;56.93;99848.02;105712;1255;65895;-73
2023/06/25 08:22:57;;;;;;;9.70;8.70;;;;;;;27.44;56.70;99848.08;105667;1256;61261;-73
2023/06/25 08:25:25;;;;;;;9.40;8.40;;;;;;;27.58;56.48;99849.88;105795;1252;61248;-73
2023/06/25 08:27:51;;;;;;;10.20;8.60;;;;;;;27.71;55.93;99849.54;105876;1254;61278;-73
2023/06/25 08:30:18;;;;;;;9.10;8.20;;;;;;;27.78;55.40;99848.50;106168;1251;61262;-74
2023/06/25 08:32:46;;;;;;;9.40;8.50;;;;;;;27.83;54.81;99848.16;105900;1256;66165;-74
2023/06/25 08:35:12;;;;;;;9.60;8.70;;;;;;;27.87;54.07;99852.98;105841;1257;61253;-74
2023/06/25 08:37:39;;;;;;;10.40;8.60;;;;;;;27.86;54.00;99856.23;105858;1255;61369;-72
2023/06/25 08:40:09;;;;;;;10.00;8.90;;;;;;;27.83;53.47;99856.09;105937;1254;61304;-73
2023/06/25 08:42:36;;;;;;;9.50;8.50;;;;;;;27.74;53.27;99851.69;105975;1254;61204;-74
2023/06/25 08:45:03;;;;;;;10.00;8.80;;;;;;;27.63;53.56;99854.86;105942;1256;65700;-76
2023/06/25 08:47:33;;;;;;;11.50;8.90;;;;;;;27.63;54.19;99856.44;105833;1254;61332;-75
2023/06/25 08:49:59;;;;;;;9.30;8.40;;;;;;;27.67;54.23;99854.45;105983;1255;63869;-73
2023/06/25 08:52:26;;;;;;;11.80;8.40;;;;;;;27.74;54.42;99850.39;105893;1253;61329;-74
2023/06/25 08:54:52;;;;;;;10.20;9.20;;;;;;;27.85;54.38;99850.95;105569;1258;61324;-76
2023/06/25 08:57:20;;;;;;;10.90;8.90;;;;;;;27.96;54.11;99852.53;105802;1258;65999;-76
2023/06/25 08:59:46;;;;;;;8.90;7.80;;;;;;;28.04;53.63;99854.01;105886;1253;61371;-74
2023/06/25 09:02:13;;;;;;;10.30;8.00;;;;;;;28.12;53.81;99851.58;105767;1251;61283;-75
2023/06/25 09:04:43;;;;;;;9.50;8.50;;;;;;;28.31;53.91;99851.30;105788;1253;61304;-74
2023/06/25 09:07:16;;;;;;;9.20;8.30;;;;;;;28.50;53.63;99853.91;105850;1252;61404;-74
2023/06/25 09:09:43;;;;;;;12.90;8.20;;;;;;;28.67;53.24;99857.49;105878;1255;65902;-75
2023/06/25 09:12:10;;;;;;;10.30;9.00;;;;;;;28.82;52.68;99860.68;105905;1253;61250;-75
2023/06/25 09:14:37;;;;;;;10.20;9.20;;;;;;;28.96;52.63;99862.92;105827;1254;63898;-75
2023/06/25 09:17:04;;;;;;;10.60;8.40;;;;;;;29.08;52.17;99864.52;105865;1256;61247;-75
2023/06/25 09:19:33;;;;;;;8.60;7.80;;;;;;;29.17;52.04;99864.41;105618;1253;61353;-76
2023/06/25 09:21:59;;;;;;;9.20;8.30;;;;;;;29.26;51.76;99857.38;105798;1257;66125;-74
2023/06/25 09:24:26;;;;;;;8.60;7.80;;;;;;;29.36;51.69;99858.12;105867;1255;61337;-74
2023/06/25 09:26:53;;;;;;;9.10;7.30;;;;;;;29.45;51.25;99859.17;105879;1253;61410;-74
2023/06/25 09:29:21;;;;;;;7.90;7.20;;;;;;;29.50;50.80;99855.49;105868;1255;61314;-76
2023/06/25 09:31:51;;;;;;;9.30;7.40;;;;;;;29.64;50.72;99857.20;105919;1253;61241;-79
2023/06/25 09:34:18;;;;;;;9.60;7.20;;;;;;;29.78;50.50;99855.89;105835;1255;65740;-74
2023/06/25 09:36:46;;;;;;;7.90;7.10;;;;;;;29.87;50.14;99852.92;105867;1257;61471;-76
2023/06/25 09:39:12;;;;;;;8.60;6.90;;;;;;;29.85;49.10;99849.05;105805;1254;63999;-76
2023/06/25 09:41:43;;;;;;;7.40;6.60;;;;;;;29.72;48.49;99843.60;105933;1253;61248;-74
2023/06/25 09:44:09;;;;;;;7.50;6.80;;;;;;;29.57;48.68;99845.23;105924;1254;61104;-74
2023/06/25 09:46:39;;;;;;;7.70;7.00;;;;;;;29.56;49.57;99845.88;105985;1252;66030;-74
2023/06/25 09:49:09;;;;;;;7.60;6.90;;;;;;;29.59;49.85;99845.73;105978;1253;61282;-75
2023/06/25 09:52:00;;;;;;;7.50;6.60;;;;;;;29.65;49.70;99844.75;105892;1256;64096;-75
2023/06/25 09:54:27;;;;;;;7.40;6.70;;;;;;;29.74;49.61;99843.35;105962;1253;61162;-74
2023/06/25 09:56:54;;;;;;;8.90;6.50;;;;;;;29.74;49.32;99837.91;105813;1253;61372;-75
2023/06/25 09:59:21;;;;;;;7.40;6.50;;;;;;;29.78;49.79;99838.43;105911;1256;65905;-74
2023/06/25 10:01:51;;;;;;;7.30;6.30;;;;;;;29.98;50.17;99840.21;105961;1252;61267;-78
2023/06/25 10:04:18;;;;;;;7.40;5.30;;;;;;;30.18;48.99;99841.55;105923;1253;65223;-76
2023/06/25 10:06:46;;;;;;;6.30;5.70;;;;;;;30.32;48.64;99839.22;105905;1252;61328;-76
2023/06/25 10:09:13;;;;;;;8.20;6.30;;;;;;;30.47;48.40;99837.50;105865;1253;61331;-75
2023/06/25 10:11:55;;;;;;;9.50;6.30;;;;;;;30.60;48.25;99831.56;105990;1253;65834;-76
2023/06/25 10:14:22;;;;;;;8.60;6.20;;;;;;;30.60;47.37;99829.45;105832;1254;61384;-75
2023/06/25 10:16:54;;;;;;;7.60;6.40;;;;;;;30.52;47.57;99831.32;105977;1253;62644;-75
2023/06/25 10:19:25;;;;;;;6.10;5.60;;;;;;;30.48;47.80;99828.62;105775;1252;61324;-75
2023/06/25 10:22:22;;;;;;;7.70;5.90;;;;;;;30.43;47.76;99828.77;105823;1253;61331;-79
2023/06/25 10:24:49;;;;;;;7.10;5.80;;;;;;;30.33;47.58;99827.69;106037;1254;65733;-77
2023/06/25 10:27:25;;;;;;;7.00;6.00;;;;;;;30.25;47.51;99826.66;105989;1253;61346;-77
2023/06/25 10:29:53;;;;;;;7.30;6.10;;;;;;;30.23;47.93;99822.57;105915;1257;63892;-75
2023/06/25 10:32:21;;;;;;;7.90;6.00;;;;;;;30.23;48.07;99818.11;106016;1251;61317;-74
2023/06/25 10:34:52;;;;;;;8.00;6.00;;;;;;;30.25;48.48;99814.40;105873;1253;61357;-75
2023/06/25 10:37:19;;;;;;;7.10;6.40;;;;;;;30.26;48.52;99813.52;106031;1257;66045;-74
2023/06/25 10:39:45;;;;;;;6.90;6.20;;;;;;;30.26;48.28;99809.34;105986;1253;61263;-74
2023/06/25 10:42:13;;;;;;;8.10;6.30;;;;;;;30.24;47.96;99809.06;105825;1253;64125;-74
2023/06/25 10:44:40;;;;;;;7.00;6.00;;;;;;;30.26;48.17;99807.10;105781;1253;61327;-73
2023/06/25 10:47:08;;;;;;;8.20;6.30;;;;;;;30.35;48.49;99805.56;105838;1253;61320;-74
2023/06/25 10:49:35;;;;;;;6.60;6.00;;;;;;;30.46;48.23;99805.12;105769;1253;66169;-74
2023/06/25 10:52:03;;;;;;;7.10;6.00;;;;;;;30.56;47.96;99802.55;105569;1254;61305;-73
2023/06/25 10:54:33;;;;;;;6.70;5.90;;;;;;;30.62;47.82;99797.73;105732;1253;64139;-74
2023/06/25 10:57:06;;;;;;;8.20;5.80;;;;;;;30.68;47.53;99791.05;105829;1253;61301;-73
2023/06/25 10:59:33;;;;;;;6.50;5.60;;;;;;;30.80;47.44;99787.76;105751;1258;61190;-74
2023/06/25 11:02:14;;;;;;;5.70;5.00;;;;;;;31.04;47.43;99783.11;105875;1255;65870;-73
2023/06/25 11:04:41;;;;;;;5.60;5.00;;;;;;;31.38;46.58;99781.52;105864;1253;61400;-74
2023/06/25 11:07:11;;;;;;;5.50;4.90;;;;;;;31.61;45.65;99781.67;105825;1253;64302;-74
2023/06/25 11:09:38;;;;;;;6.90;5.10;;;;;;;31.69;44.52;99783.64;105679;1253;61309;-74
2023/06/25 11:12:06;;;;;;;5.60;4.20;;;;;;;31.71;44.87;99784.56;105746;1253;61279;-73
2023/06/25 11:14:34;;;;;;;7.80;5.00;;;;;;;31.77;44.54;99782.89;105650;1257;65922;-75
2023/06/25 11:17:00;;;;;;;6.60;5.90;;;;;;;31.79;44.46;99777.70;105737;1253;61248;-74
2023/06/25 11:19:29;;;;;;;6.10;5.50;;;;;;;31.92;45.16;99772.48;105753;1253;63854;-74